Flight Track Log - Related Links

Times and Time Zones

All times are in EDT time to prevent confusion due to time zone crossing. See the N8596W flight status page for this flight to view local times or setup timezone preferences in your user account.

Time Position Orientation Groundspeed Altitude Reporting Facility
EDT Latitude Longitude Course Direction KTS MPH feet Rate Location/Type
Sun 08:38:09 AM 44.2736 -88.4594 96° East 94 108 2,800  Level Minneapolis Center
Sun 08:39:10 AM 44.2708 -88.4197 96° East 98 113 3,400 541 Climbing Minneapolis Center
Sun 08:40:11 AM 44.2692 -88.3778 93° East 102 117 3,900 293 Climbing Minneapolis Center
Sun 08:41:13 AM 44.2625 -88.3328 102° East 110 127 4,000 49 Climbing Minneapolis Center
Sun 08:42:14 AM 44.2289 -88.3014 146° Southeast 133 153 4,000 49 Level Minneapolis Center
Sun 08:43:15 AM 44.1994 -88.2711 144° Southeast 134 154 4,100 49 Climbing Minneapolis Center
Sun 08:44:16 AM 44.1722 -88.2353 137° Southeast 133 153 4,100  Level Minneapolis Center
Sun 08:45:17 AM 44.1322 -88.2572 201° Southwest 136 157 4,100  Level Minneapolis Center
Sun 08:46:30 AM 44.0972 -88.2700 195° South 131 151 4,100 -44 Level Minneapolis Center
Sun 08:47:32 AM 44.0539 -88.2825 192° South 133 153 4,000 -244 Descending Minneapolis Center
Sun 08:48:33 AM 44.0156 -88.2917 190° South 137 158 3,600 -439 Descending Chicago Center
Sun 08:49:35 AM 43.9881 -88.3103 206° Southwest 147 169 3,100 -293 Descending Chicago Center
Sun 08:51:37 AM 43.9906 -88.4019 272° West 121 139 2,700 -361 Descending Minneapolis Center
Sun 08:52:38 AM 43.9906 -88.4583 270° West 122 140 2,000 -639 Descending Minneapolis Center
Sun 08:53:39 AM 43.9917 -88.5039 272° West 121 139 1,400 -476 Descending Minneapolis Center
Sun 08:54:44 AM 43.9925 -88.5464 272° West 113 130 1,000 -369 Descending Chicago Center
Sun 08:56:00 AM 43.9833 -88.5500 270° West  Level FlightAware Approximate
Sun 09:03:00 AM 43.9845 -88.5569 270° West  Level Estimated
Sun 09:04:00 AM 43.9833 -88.5500 270° West  Level FlightAware Approximate
Sun 09:05:00 AM 43.9845 -88.5569 270° West  Level Estimated
Sun 09:06:00 AM 43.9833 -88.5500 270° West  Level FlightAware Approximate
Sun 09:07:00 AM 43.9845 -88.5569 270° West  Level Estimated

Login

Don't have an account? Register now (free) for customized features, flight alerts, and more!